sensor_id;sensor_type;location;lat;lon;timestamp;pressure;altitude;pressure_sealevel;temperature;humidity
25584;BME280;13463;51.526;9.928;2024-01-30T00:02:18;101237.69;;;2.22;100.00
25584;BME280;13463;51.526;9.928;2024-01-30T00:04:45;101239.47;;;2.26;100.00
25584;BME280;13463;51.526;9.928;2024-01-30T00:07:11;101227.22;;;2.30;100.00
25584;BME280;13463;51.526;9.928;2024-01-30T00:09:38;101232.47;;;2.22;100.00
25584;BME280;13463;51.526;9.928;2024-01-30T00:12:06;101226.38;;;2.14;100.00
25584;BME280;13463;51.526;9.928;2024-01-30T00:14:33;101225.50;;;2.24;100.00
25584;BME280;13463;51.526;9.928;2024-01-30T00:16:59;101228.97;;;2.31;100.00
25584;BME280;13463;51.526;9.928;2024-01-30T00:19:26;101228.97;;;2.32;100.00
25584;BME280;13463;51.526;9.928;2024-01-30T00:21:53;101234.19;;;2.32;100.00
25584;BME280;13463;51.526;9.928;2024-01-30T00:24:19;101222.00;;;2.22;100.00
25584;BME280;13463;51.526;9.928;2024-01-30T00:26:46;101215.03;;;2.18;100.00
25584;BME280;13463;51.526;9.928;2024-01-30T00:29:12;101213.31;;;2.14;100.00
25584;BME280;13463;51.526;9.928;2024-01-30T00:31:45;101215.03;;;2.08;100.00
25584;BME280;13463;51.526;9.928;2024-01-30T00:34:12;101216.78;;;2.16;100.00
25584;BME280;13463;51.526;9.928;2024-01-30T00:36:39;101222.00;;;2.16;100.00
25584;BME280;13463;51.526;9.928;2024-01-30T00:39:05;101213.28;;;2.17;100.00
25584;BME280;13463;51.526;9.928;2024-01-30T00:41:34;101209.81;;;2.03;100.00
25584;BME280;13463;51.526;9.928;2024-01-30T00:44:01;101213.31;;;1.97;100.00
25584;BME280;13463;51.526;9.928;2024-01-30T00:46:27;101215.91;;;1.88;100.00
25584;BME280;13463;51.526;9.928;2024-01-30T00:48:54;101215.06;;;1.70;100.00
25584;BME280;13463;51.526;9.928;2024-01-30T00:51:21;101218.53;;;1.99;100.00
25584;BME280;13463;51.526;9.928;2024-01-30T00:53:47;101219.41;;;1.86;100.00
25584;BME280;13463;51.526;9.928;2024-01-30T00:56:14;101215.91;;;2.00;100.00
25584;BME280;13463;51.526;9.928;2024-01-30T00:58:44;101220.31;;;2.00;100.00
25584;BME280;13463;51.526;9.928;2024-01-30T01:01:11;101213.28;;;2.05;100.00
25584;BME280;13463;51.526;9.928;2024-01-30T01:03:38;101211.53;;;2.16;100.00
25584;BME280;13463;51.526;9.928;2024-01-30T01:06:04;101211.53;;;2.25;100.00
25584;BME280;13463;51.526;9.928;2024-01-30T01:08:31;101211.53;;;2.18;100.00
25584;BME280;13463;51.526;9.928;2024-01-30T01:10:57;101218.53;;;2.02;100.00
25584;BME280;13463;51.526;9.928;2024-01-30T01:13:24;101219.41;;;2.07;100.00
25584;BME280;13463;51.526;9.928;2024-01-30T01:15:50;101216.81;;;1.95;100.00
25584;BME280;13463;51.526;9.928;2024-01-30T01:18:17;101227.25;;;1.92;100.00
25584;BME280;13463;51.526;9.928;2024-01-30T01:20:44;101227.25;;;2.19;100.00
25584;BME280;13463;51.526;9.928;2024-01-30T01:23:10;101230.72;;;2.27;100.00
25584;BME280;13463;51.526;9.928;2024-01-30T01:25:37;101227.22;;;2.28;100.00
25584;BME280;13463;51.526;9.928;2024-01-30T01:28:03;101230.75;;;2.21;100.00
25584;BME280;13463;51.526;9.928;2024-01-30T01:30:30;101233.31;;;2.35;100.00
25584;BME280;13463;51.526;9.928;2024-01-30T01:32:57;101226.38;;;2.34;100.00
25584;BME280;13463;51.526;9.928;2024-01-30T01:35:27;101223.69;;;2.44;100.00
25584;BME280;13463;51.526;9.928;2024-01-30T01:37:54;101222.81;;;2.44;100.00
25584;BME280;13463;51.526;9.928;2024-01-30T01:40:23;101228.03;;;2.51;100.00
25584;BME280;13463;51.526;9.928;2024-01-30T01:42:51;101242.03;;;2.46;100.00
25584;BME280;13463;51.526;9.928;2024-01-30T01:45:21;101228.94;;;2.43;100.00
25584;BME280;13463;51.526;9.928;2024-01-30T01:47:50;101239.41;;;2.41;100.00
25584;BME280;13463;51.526;9.928;2024-01-30T01:50:18;101234.19;;;2.35;100.00
25584;BME280;13463;51.526;9.928;2024-01-30T01:52:50;101229.84;;;2.28;100.00
25584;BME280;13463;51.526;9.928;2024-01-30T01:55:17;101227.22;;;2.33;100.00
25584;BME280;13463;51.526;9.928;2024-01-30T01:57:48;101224.56;;;2.42;100.00
25584;BME280;13463;51.526;9.928;2024-01-30T02:00:14;101221.97;;;2.37;100.00
25584;BME280;13463;51.526;9.928;2024-01-30T02:02:43;101221.16;;;2.22;100.00
25584;BME280;13463;51.526;9.928;2024-01-30T02:05:11;101220.25;;;2.21;100.00
25584;BME280;13463;51.526;9.928;2024-01-30T02:07:38;101222.00;;;2.25;100.00
25584;BME280;13463;51.526;9.928;2024-01-30T02:10:07;101226.34;;;2.17;100.00
25584;BME280;13463;51.526;9.928;2024-01-30T02:12:34;101227.22;;;2.28;100.00
25584;BME280;13463;51.526;9.928;2024-01-30T02:15:01;101225.50;;;2.15;100.00
25584;BME280;13463;51.526;9.928;2024-01-30T02:17:27;101220.25;;;2.27;100.00
25584;BME280;13463;51.526;9.928;2024-01-30T02:19:54;101215.03;;;2.18;100.00
25584;BME280;13463;51.526;9.928;2024-01-30T02:22:21;101222.91;;;2.05;100.00
25584;BME280;13463;51.526;9.928;2024-01-30T02:24:49;101214.19;;;1.89;100.00
25584;BME280;13463;51.526;9.928;2024-01-30T02:27:15;101223.75;;;1.93;100.00
25584;BME280;13463;51.526;9.928;2024-01-30T02:29:42;101217.66;;;1.95;100.00
25584;BME280;13463;51.526;9.928;2024-01-30T02:32:08;101216.78;;;2.04;100.00
25584;BME280;13463;51.526;9.928;2024-01-30T02:34:35;101213.28;;;2.05;100.00
25584;BME280;13463;51.526;9.928;2024-01-30T02:37:01;101212.44;;;2.01;100.00
25584;BME280;13463;51.526;9.928;2024-01-30T02:39:28;101206.34;;;1.95;100.00
25584;BME280;13463;51.526;9.928;2024-01-30T02:41:55;101208.06;;;2.00;100.00
25584;BME280;13463;51.526;9.928;2024-01-30T02:44:21;101199.34;;;2.06;100.00
25584;BME280;13463;51.526;9.928;2024-01-30T02:46:48;101195.88;;;2.04;100.00
25584;BME280;13463;51.526;9.928;2024-01-30T02:49:15;101199.38;;;2.00;100.00
25584;BME280;13463;51.526;9.928;2024-01-30T02:51:41;101195.84;;;1.98;100.00
25584;BME280;13463;51.526;9.928;2024-01-30T02:54:08;101196.75;;;1.94;100.00
25584;BME280;13463;51.526;9.928;2024-01-30T02:56:34;101188.91;;;1.88;100.00
25584;BME280;13463;51.526;9.928;2024-01-30T02:59:01;101183.69;;;1.88;100.00
25584;BME280;13463;51.526;9.928;2024-01-30T03:01:27;101192.41;;;1.85;100.00
25584;BME280;13463;51.526;9.928;2024-01-30T03:03:54;101187.13;;;1.88;100.00
25584;BME280;13463;51.526;9.928;2024-01-30T03:06:21;101181.06;;;1.76;100.00
25584;BME280;13463;51.526;9.928;2024-01-30T03:08:49;101186.31;;;1.64;100.00
25584;BME280;13463;51.526;9.928;2024-01-30T03:11:15;101180.16;;;1.62;100.00
25584;BME280;13463;51.526;9.928;2024-01-30T03:13:42;101181.94;;;1.54;100.00
25584;BME280;13463;51.526;9.928;2024-01-30T03:16:08;101183.66;;;1.55;100.00
25584;BME280;13463;51.526;9.928;2024-01-30T03:18:35;101180.19;;;1.65;100.00
25584;BME280;13463;51.526;9.928;2024-01-30T03:21:02;101176.72;;;1.66;100.00
25584;BME280;13463;51.526;9.928;2024-01-30T03:23:28;101174.94;;;1.74;100.00
25584;BME280;13463;51.526;9.928;2024-01-30T03:25:55;101174.09;;;1.58;100.00
25584;BME280;13463;51.526;9.928;2024-01-30T03:28:22;101171.47;;;1.63;100.00
25584;BME280;13463;51.526;9.928;2024-01-30T03:30:48;101167.97;;;1.58;100.00
25584;BME280;13463;51.526;9.928;2024-01-30T03:33:15;101168.84;;;1.51;100.00
25584;BME280;13463;51.526;9.928;2024-01-30T03:35:42;101168.88;;;1.54;100.00
25584;BME280;13463;51.526;9.928;2024-01-30T03:38:09;101171.47;;;1.60;100.00
25584;BME280;13463;51.526;9.928;2024-01-30T03:40:35;101161.03;;;1.66;100.00
25584;BME280;13463;51.526;9.928;2024-01-30T03:43:02;101161.03;;;1.66;100.00
25584;BME280;13463;51.526;9.928;2024-01-30T03:45:29;101156.66;;;1.59;100.00
25584;BME280;13463;51.526;9.928;2024-01-30T03:47:55;101161.00;;;1.48;100.00
25584;BME280;13463;51.526;9.928;2024-01-30T03:50:22;101158.41;;;1.45;100.00
25584;BME280;13463;51.526;9.928;2024-01-30T03:52:48;101157.53;;;1.40;100.00
25584;BME280;13463;51.526;9.928;2024-01-30T03:55:15;101163.63;;;1.39;100.00
25584;BME280;13463;51.526;9.928;2024-01-30T03:57:41;101157.53;;;1.37;100.00
25584;BME280;13463;51.526;9.928;2024-01-30T04:00:08;101152.28;;;1.37;100.00
25584;BME280;13463;51.526;9.928;2024-01-30T04:02:35;101148.78;;;1.38;100.00
25584;BME280;13463;51.526;9.928;2024-01-30T04:05:01;101143.59;;;1.47;100.00
25584;BME280;13463;51.526;9.928;2024-01-30T04:07:28;101143.56;;;1.57;100.00
25584;BME280;13463;51.526;9.928;2024-01-30T04:09:55;101141.84;;;1.65;100.00
25584;BME280;13463;51.526;9.928;2024-01-30T04:12:22;101133.97;;;1.77;100.00
25584;BME280;13463;51.526;9.928;2024-01-30T04:14:48;101133.97;;;1.83;100.00
25584;BME280;13463;51.526;9.928;2024-01-30T04:17:15;101133.97;;;1.92;100.00
25584;BME280;13463;51.526;9.928;2024-01-30T04:19:41;101132.22;;;1.84;100.00
25584;BME280;13463;51.526;9.928;2024-01-30T04:22:08;101131.38;;;1.85;100.00
25584;BME280;13463;51.526;9.928;2024-01-30T04:24:35;101135.69;;;1.86;100.00
25584;BME280;13463;51.526;9.928;2024-01-30T04:27:01;101141.84;;;1.88;100.00
25584;BME280;13463;51.526;9.928;2024-01-30T04:29:28;101142.69;;;1.97;100.00
25584;BME280;13463;51.526;9.928;2024-01-30T04:31:54;101148.75;;;2.06;100.00
25584;BME280;13463;51.526;9.928;2024-01-30T04:34:21;101148.75;;;2.10;100.00
25584;BME280;13463;51.526;9.928;2024-01-30T04:36:47;101147.84;;;2.23;100.00
25584;BME280;13463;51.526;9.928;2024-01-30T04:39:14;101142.59;;;2.28;100.00
25584;BME280;13463;51.526;9.928;2024-01-30T04:41:40;101139.97;;;2.31;100.00
25584;BME280;13463;51.526;9.928;2024-01-30T04:44:07;101141.69;;;2.42;100.00
25584;BME280;13463;51.526;9.928;2024-01-30T04:46:33;101146.88;;;2.48;100.00
25584;BME280;13463;51.526;9.928;2024-01-30T04:49:00;101150.34;;;2.56;100.00
25584;BME280;13463;51.526;9.928;2024-01-30T04:51:27;101141.63;;;2.57;100.00
25584;BME280;13463;51.526;9.928;2024-01-30T04:53:54;101145.09;;;2.59;100.00
25584;BME280;13463;51.526;9.928;2024-01-30T04:56:20;101146.81;;;2.63;100.00
25584;BME280;13463;51.526;9.928;2024-01-30T04:58:47;101141.56;;;2.68;100.00
25584;BME280;13463;51.526;9.928;2024-01-30T05:01:17;101149.38;;;2.72;100.00
25584;BME280;13463;51.526;9.928;2024-01-30T05:03:44;101146.81;;;2.69;100.00
25584;BME280;13463;51.526;9.928;2024-01-30T05:06:11;101143.34;;;2.67;100.00
25584;BME280;13463;51.526;9.928;2024-01-30T05:08:37;101146.78;;;2.72;100.00
25584;BME280;13463;51.526;9.928;2024-01-30T05:11:07;101150.28;;;2.72;100.00
25584;BME280;13463;51.526;9.928;2024-01-30T05:13:33;101145.88;;;2.75;100.00
25584;BME280;13463;51.526;9.928;2024-01-30T05:16:02;101145.00;;;2.81;100.00
25584;BME280;13463;51.526;9.928;2024-01-30T05:18:29;101143.22;;;2.89;100.00
25584;BME280;13463;51.526;9.928;2024-01-30T05:20:56;101144.06;;;2.91;100.00
25584;BME280;13463;51.526;9.928;2024-01-30T05:23:23;101136.16;;;2.97;100.00
25584;BME280;13463;51.526;9.928;2024-01-30T05:25:49;101147.50;;;3.02;100.00
25584;BME280;13463;51.526;9.928;2024-01-30T05:28:16;101144.88;;;3.03;100.00
25584;BME280;13463;51.526;9.928;2024-01-30T05:30:42;101144.03;;;3.01;100.00
25584;BME280;13463;51.526;9.928;2024-01-30T05:33:09;101138.75;;;3.03;100.00
25584;BME280;13463;51.526;9.928;2024-01-30T05:35:36;101137.00;;;3.02;100.00
25584;BME280;13463;51.526;9.928;2024-01-30T05:38:03;101144.88;;;3.02;100.00
25584;BME280;13463;51.526;9.928;2024-01-30T05:40:30;101144.00;;;3.00;100.00
25584;BME280;13463;51.526;9.928;2024-01-30T05:42:57;101142.28;;;2.97;100.00
25584;BME280;13463;51.526;9.928;2024-01-30T05:45:28;101144.91;;;2.94;100.00
25584;BME280;13463;51.526;9.928;2024-01-30T05:47:54;101145.81;;;2.93;100.00
25584;BME280;13463;51.526;9.928;2024-01-30T05:50:21;101140.56;;;2.96;100.00
25584;BME280;13463;51.526;9.928;2024-01-30T05:52:49;101142.28;;;2.97;100.00
25584;BME280;13463;51.526;9.928;2024-01-30T05:55:16;101149.31;;;2.94;100.00
25584;BME280;13463;51.526;9.928;2024-01-30T05:57:43;101148.41;;;2.95;100.00
25584;BME280;13463;51.526;9.928;2024-01-30T06:00:09;101149.25;;;3.03;100.00
25584;BME280;13463;51.526;9.928;2024-01-30T06:02:36;101141.38;;;3.03;100.00
25584;BME280;13463;51.526;9.928;2024-01-30T06:05:03;101140.50;;;3.08;100.00
25584;BME280;13463;51.526;9.928;2024-01-30T06:07:30;101144.81;;;3.12;100.00
25584;BME280;13463;51.526;9.928;2024-01-30T06:10:02;101136.00;;;3.21;100.00
25584;BME280;13463;51.526;9.928;2024-01-30T06:12:29;101140.31;;;3.28;100.00
25584;BME280;13463;51.526;9.928;2024-01-30T06:14:56;101143.84;;;3.27;100.00
25584;BME280;13463;51.526;9.928;2024-01-30T06:17:23;101136.88;;;3.24;100.00
25584;BME280;13463;51.526;9.928;2024-01-30T06:19:50;101143.03;;;3.19;100.00
25584;BME280;13463;51.526;9.928;2024-01-30T06:22:16;101144.69;;;3.29;100.00
25584;BME280;13463;51.526;9.928;2024-01-30T06:24:43;101149.94;;;3.29;100.00
25584;BME280;13463;51.526;9.928;2024-01-30T06:27:11;101137.72;;;3.28;100.00
25584;BME280;13463;51.526;9.928;2024-01-30T06:29:38;101139.44;;;3.30;100.00
25584;BME280;13463;51.526;9.928;2024-01-30T06:32:05;101142.84;;;3.43;100.00
25584;BME280;13463;51.526;9.928;2024-01-30T06:34:31;101139.41;;;3.40;100.00
25584;BME280;13463;51.526;9.928;2024-01-30T06:36:58;101146.41;;;3.33;100.00
25584;BME280;13463;51.526;9.928;2024-01-30T06:39:26;101148.19;;;3.31;100.00
25584;BME280;13463;51.526;9.928;2024-01-30T06:41:52;101142.09;;;3.26;100.00
25584;BME280;13463;51.526;9.928;2024-01-30T06:44:19;101146.47;;;3.27;100.00
25584;BME280;13463;51.526;9.928;2024-01-30T06:46:45;101142.94;;;3.31;100.00
25584;BME280;13463;51.526;9.928;2024-01-30T06:49:12;101142.94;;;3.34;100.00
25584;BME280;13463;51.526;9.928;2024-01-30T06:51:39;101142.94;;;3.34;100.00
25584;BME280;13463;51.526;9.928;2024-01-30T06:54:05;101137.63;;;3.42;100.00
25584;BME280;13463;51.526;9.928;2024-01-30T06:56:32;101144.63;;;3.41;100.00
25584;BME280;13463;51.526;9.928;2024-01-30T06:58:58;101138.56;;;3.34;100.00
25584;BME280;13463;51.526;9.928;2024-01-30T07:01:29;101139.44;;;3.35;100.00
25584;BME280;13463;51.526;9.928;2024-01-30T07:03:57;101139.38;;;3.38;100.00
25584;BME280;13463;51.526;9.928;2024-01-30T07:06:24;101138.50;;;3.41;100.00
25584;BME280;13463;51.526;9.928;2024-01-30T07:08:51;101135.03;;;3.37;100.00
25584;BME280;13463;51.526;9.928;2024-01-30T07:11:21;101140.31;;;3.31;100.00
25584;BME280;13463;51.526;9.928;2024-01-30T07:13:51;101140.34;;;3.29;100.00
25584;BME280;13463;51.526;9.928;2024-01-30T07:16:18;101136.78;;;3.36;100.00
25584;BME280;13463;51.526;9.928;2024-01-30T07:18:45;101128.94;;;3.35;100.00
25584;BME280;13463;51.526;9.928;2024-01-30T07:21:11;101133.31;;;3.34;100.00
25584;BME280;13463;51.526;9.928;2024-01-30T07:23:38;101138.50;;;3.41;100.00
25584;BME280;13463;51.526;9.928;2024-01-30T07:26:05;101141.09;;;3.44;100.00
25584;BME280;13463;51.526;9.928;2024-01-30T07:28:33;101146.28;;;3.51;100.00
25584;BME280;13463;51.526;9.928;2024-01-30T07:31:00;101138.41;;;3.53;100.00
25584;BME280;13463;51.526;9.928;2024-01-30T07:33:27;101139.28;;;3.53;100.00
25584;BME280;13463;51.526;9.928;2024-01-30T07:35:54;101136.50;;;3.70;100.00
25584;BME280;13463;51.526;9.928;2024-01-30T07:38:20;101145.25;;;3.73;100.00
25584;BME280;13463;51.526;9.928;2024-01-30T07:40:47;101149.44;;;3.92;100.00
25584;BME280;13463;51.526;9.928;2024-01-30T07:43:13;101140.72;;;3.90;100.00
25584;BME280;13463;51.526;9.928;2024-01-30T07:45:40;101138.97;;;3.88;100.00
25584;BME280;13463;51.526;9.928;2024-01-30T07:48:07;101142.44;;;3.88;100.00
25584;BME280;13463;51.526;9.928;2024-01-30T07:50:34;101143.28;;;3.95;100.00
25584;BME280;13463;51.526;9.928;2024-01-30T07:53:02;101147.56;;;4.03;100.00
25584;BME280;13463;51.526;9.928;2024-01-30T07:55:28;101143.94;;;4.17;100.00
25584;BME280;13463;51.526;9.928;2024-01-30T08:01:27;101142.13;;;4.22;100.00
25584;BME280;13463;51.526;9.928;2024-01-30T08:03:54;101135.88;;;4.33;100.00
25584;BME280;13463;51.526;9.928;2024-01-30T08:06:20;101141.91;;;4.40;100.00
25584;BME280;13463;51.526;9.928;2024-01-30T08:08:47;101133.00;;;4.53;100.00
25584;BME280;13463;51.526;9.928;2024-01-30T08:11:14;101133.03;;;4.50;100.00
25584;BME280;13463;51.526;9.928;2024-01-30T08:13:40;101134.75;;;4.51;100.00
25584;BME280;13463;51.526;9.928;2024-01-30T08:16:07;101136.41;;;4.62;100.00
25584;BME280;13463;51.526;9.928;2024-01-30T08:18:35;101128.34;;;4.75;100.00
25584;BME280;13463;51.526;9.928;2024-01-30T08:21:02;101123.56;;;5.02;100.00
25584;BME280;13463;51.526;9.928;2024-01-30T08:23:28;101128.47;;;5.26;100.00
25584;BME280;13463;51.526;9.928;2024-01-30T08:25:55;101125.41;;;4.97;100.00
25584;BME280;13463;51.526;9.928;2024-01-30T08:28:21;101124.13;;;5.24;100.00
25584;BME280;13463;51.526;9.928;2024-01-30T08:30:48;101128.44;;;5.29;100.00
25584;BME280;13463;51.526;9.928;2024-01-30T08:33:15;101126.31;;;5.53;100.00
25584;BME280;13463;51.526;9.928;2024-01-30T08:35:44;101127.72;;;5.72;100.00
25584;BME280;13463;51.526;9.928;2024-01-30T08:38:11;101129.72;;;5.58;100.00
25584;BME280;13463;51.526;9.928;2024-01-30T08:40:39;101133.06;;;5.69;100.00
25584;BME280;13463;51.526;9.928;2024-01-30T08:43:05;101131.84;;;5.37;100.00
25584;BME280;13463;51.526;9.928;2024-01-30T08:45:32;101132.28;;;5.62;100.00
25584;BME280;13463;51.526;9.928;2024-01-30T08:47:58;101138.22;;;5.75;100.00
25584;BME280;13463;51.526;9.928;2024-01-30T08:50:25;101135.81;;;5.61;100.00
25584;BME280;13463;51.526;9.928;2024-01-30T08:52:51;101137.75;;;5.50;100.00
25584;BME280;13463;51.526;9.928;2024-01-30T08:55:18;101134.28;;;5.48;100.00
25584;BME280;13463;51.526;9.928;2024-01-30T08:57:45;101140.44;;;5.46;100.00
25584;BME280;13463;51.526;9.928;2024-01-30T09:00:12;101133.28;;;5.57;100.00
25584;BME280;13463;51.526;9.928;2024-01-30T09:02:38;101131.84;;;5.36;100.00
25584;BME280;13463;51.526;9.928;2024-01-30T09:05:05;101125.63;;;5.40;100.00
25584;BME280;13463;51.526;9.928;2024-01-30T09:07:32;101131.59;;;5.50;100.00
25584;BME280;13463;51.526;9.928;2024-01-30T09:09:59;101135.09;;;5.52;100.00
25584;BME280;13463;51.526;9.928;2024-01-30T09:12:26;101127.09;;;5.58;100.00
25584;BME280;13463;51.526;9.928;2024-01-30T09:14:53;101132.00;;;5.79;100.00
25584;BME280;13463;51.526;9.928;2024-01-30T09:17:19;101128.56;;;5.75;100.00
25584;BME280;13463;51.526;9.928;2024-01-30T09:19:46;101129.31;;;5.82;100.00
25584;BME280;13463;51.526;9.928;2024-01-30T09:22:13;101129.88;;;6.00;100.00
25584;BME280;13463;51.526;9.928;2024-01-30T09:24:40;101131.41;;;6.14;100.00
25584;BME280;13463;51.526;9.928;2024-01-30T09:27:07;101129.66;;;6.14;100.00
25584;BME280;13463;51.526;9.928;2024-01-30T09:29:33;101136.00;;;6.48;100.00
25584;BME280;13463;51.526;9.928;2024-01-30T09:32:04;101126.97;;;6.60;99.53
25584;BME280;13463;51.526;9.928;2024-01-30T09:34:30;101126.09;;;6.59;99.73
25584;BME280;13463;51.526;9.928;2024-01-30T09:36:58;101128.59;;;6.65;99.84
25584;BME280;13463;51.526;9.928;2024-01-30T09:39:26;101132.31;;;6.57;100.00
25584;BME280;13463;51.526;9.928;2024-01-30T09:42:04;101130.56;;;6.56;100.00
25584;BME280;13463;51.526;9.928;2024-01-30T09:44:34;101127.41;;;6.82;100.00
25584;BME280;13463;51.526;9.928;2024-01-30T09:47:02;101126.72;;;6.72;100.00
25584;BME280;13463;51.526;9.928;2024-01-30T09:49:32;101132.09;;;6.67;100.00
25584;BME280;13463;51.526;9.928;2024-01-30T09:52:00;101125.84;;;6.71;100.00
25584;BME280;13463;51.526;9.928;2024-01-30T09:54:30;101125.03;;;6.68;100.00
25584;BME280;13463;51.526;9.928;2024-01-30T09:57:01;101121.91;;;6.91;100.00
25584;BME280;13463;51.526;9.928;2024-01-30T09:59:28;101123.97;;;6.77;100.00
25584;BME280;13463;51.526;9.928;2024-01-30T10:01:55;101121.34;;;6.77;100.00
25584;BME280;13463;51.526;9.928;2024-01-30T10:04:23;101120.53;;;6.75;100.00
25584;BME280;13463;51.526;9.928;2024-01-30T10:06:50;101120.56;;;6.71;100.00
25584;BME280;13463;51.526;9.928;2024-01-30T10:09:17;101127.59;;;6.72;100.00
25584;BME280;13463;51.526;9.928;2024-01-30T10:11:43;101123.00;;;6.82;100.00
25584;BME280;13463;51.526;9.928;2024-01-30T10:14:10;101125.66;;;6.81;100.00
25584;BME280;13463;51.526;9.928;2024-01-30T10:16:37;101119.13;;;6.97;100.00
25584;BME280;13463;51.526;9.928;2024-01-30T10:19:03;101131.22;;;7.44;100.00
25584;BME280;13463;51.526;9.928;2024-01-30T10:21:30;101131.81;;;7.55;100.00
25584;BME280;13463;51.526;9.928;2024-01-30T10:23:57;101120.81;;;7.73;99.02
25584;BME280;13463;51.526;9.928;2024-01-30T10:26:24;101119.88;;;7.75;97.32
25584;BME280;13463;51.526;9.928;2024-01-30T10:28:50;101115.50;;;7.74;98.13
25584;BME280;13463;51.526;9.928;2024-01-30T10:31:18;101118.38;;;7.65;98.90
25584;BME280;13463;51.526;9.928;2024-01-30T10:33:48;101112.28;;;7.63;97.63
25584;BME280;13463;51.526;9.928;2024-01-30T10:36:15;101117.69;;;7.92;97.67
25584;BME280;13463;51.526;9.928;2024-01-30T10:38:47;101105.28;;;7.94;96.31
25584;BME280;13463;51.526;9.928;2024-01-30T10:41:20;101103.00;;;8.15;96.00
25584;BME280;13463;51.526;9.928;2024-01-30T10:44:01;101095.69;;;8.23;95.50
25584;BME280;13463;51.526;9.928;2024-01-30T10:46:31;101099.75;;;8.03;96.05
25584;BME280;13463;51.526;9.928;2024-01-30T10:48:58;101087.97;;;8.17;94.96
25584;BME280;13463;51.526;9.928;2024-01-30T10:51:26;101088.28;;;8.04;95.86
25584;BME280;13463;51.526;9.928;2024-01-30T10:53:55;101084.38;;;8.18;95.48
25584;BME280;13463;51.526;9.928;2024-01-30T10:56:22;101081.59;;;8.24;95.62
25584;BME280;13463;51.526;9.928;2024-01-30T10:58:53;101084.38;;;8.18;96.52
25584;BME280;13463;51.526;9.928;2024-01-30T11:01:21;101090.34;;;8.56;95.54
25584;BME280;13463;51.526;9.928;2024-01-30T11:03:52;101084.38;;;8.50;95.25
25584;BME280;13463;51.526;9.928;2024-01-30T11:06:22;101083.72;;;8.42;95.18
25584;BME280;13463;51.526;9.928;2024-01-30T11:09:04;101075.72;;;8.45;95.75
25584;BME280;13463;51.526;9.928;2024-01-30T11:11:50;101072.06;;;8.49;95.84
25584;BME280;13463;51.526;9.928;2024-01-30T11:14:16;101069.53;;;8.46;96.58
25584;BME280;13463;51.526;9.928;2024-01-30T11:16:49;101052.75;;;8.47;96.71
25584;BME280;13463;51.526;9.928;2024-01-30T11:19:22;101047.50;;;8.75;95.88
25584;BME280;13463;51.526;9.928;2024-01-30T11:21:51;101046.09;;;8.63;96.30
25584;BME280;13463;51.526;9.928;2024-01-30T11:24:20;101038.41;;;8.83;95.50
25584;BME280;13463;51.526;9.928;2024-01-30T11:26:55;101033.94;;;8.85;94.24
25584;BME280;13463;51.526;9.928;2024-01-30T11:29:28;101036.75;;;9.08;94.37
25584;BME280;13463;51.526;9.928;2024-01-30T11:31:56;101038.69;;;9.02;93.32
25584;BME280;13463;51.526;9.928;2024-01-30T11:34:23;101032.97;;;9.15;92.07
25584;BME280;13463;51.526;9.928;2024-01-30T11:36:58;101042.47;;;9.21;92.92
25584;BME280;13463;51.526;9.928;2024-01-30T11:39:26;101026.88;;;9.39;93.14
25584;BME280;13463;51.526;9.928;2024-01-30T11:41:53;101021.50;;;9.41;92.15
25584;BME280;13463;51.526;9.928;2024-01-30T11:44:21;101027.06;;;9.33;92.13
25584;BME280;13463;51.526;9.928;2024-01-30T11:46:48;101030.94;;;9.50;92.88
25584;BME280;13463;51.526;9.928;2024-01-30T11:49:18;101034.41;;;9.25;94.44
25584;BME280;13463;51.526;9.928;2024-01-30T11:51:45;101025.53;;;9.26;94.09
25584;BME280;13463;51.526;9.928;2024-01-30T11:54:12;101034.78;;;9.66;92.52
25584;BME280;13463;51.526;9.928;2024-01-30T11:56:40;101044.47;;;9.40;93.02
25584;BME280;13463;51.526;9.928;2024-01-30T11:59:06;101054.72;;;9.25;93.53
25584;BME280;13463;51.526;9.928;2024-01-30T12:01:33;101050.78;;;9.10;95.47
25584;BME280;13463;51.526;9.928;2024-01-30T12:04:00;101055.69;;;8.95;96.38
25584;BME280;13463;51.526;9.928;2024-01-30T12:06:27;101051.09;;;9.01;96.81
25584;BME280;13463;51.526;9.928;2024-01-30T12:11:23;101043.03;;;9.04;97.16
25584;BME280;13463;51.526;9.928;2024-01-30T12:13:53;101041.31;;;9.03;96.85
25584;BME280;13463;51.526;9.928;2024-01-30T12:16:20;101035.09;;;9.04;96.09
25584;BME280;13463;51.526;9.928;2024-01-30T12:18:48;101031.19;;;9.16;95.46
25584;BME280;13463;51.526;9.928;2024-01-30T12:21:17;101023.34;;;9.13;94.36
25584;BME280;13463;51.526;9.928;2024-01-30T12:23:45;101031.47;;;9.33;94.30
25584;BME280;13463;51.526;9.928;2024-01-30T12:26:12;101034.00;;;9.37;93.56
25584;BME280;13463;51.526;9.928;2024-01-30T12:28:48;101038.47;;;9.35;93.00
25584;BME280;13463;51.526;9.928;2024-01-30T12:31:15;101020.59;;;9.42;94.03
25584;BME280;13463;51.526;9.928;2024-01-30T12:33:42;101025.22;;;9.35;94.71
25584;BME280;13463;51.526;9.928;2024-01-30T12:36:09;101019.59;;;9.71;93.10
25584;BME280;13463;51.526;9.928;2024-01-30T12:38:36;101010.56;;;9.52;93.42
25584;BME280;13463;51.526;9.928;2024-01-30T12:41:02;101016.34;;;9.63;93.49
25584;BME280;13463;51.526;9.928;2024-01-30T12:43:29;101011.84;;;9.65;93.45
25584;BME280;13463;51.526;9.928;2024-01-30T12:46:04;101003.19;;;9.60;93.77
25584;BME280;13463;51.526;9.928;2024-01-30T12:48:32;101013.78;;;9.60;93.94
25584;BME280;13463;51.526;9.928;2024-01-30T12:50:59;101008.13;;;9.70;93.57
25584;BME280;13463;51.526;9.928;2024-01-30T12:53:26;101005.97;;;9.57;94.15
25584;BME280;13463;51.526;9.928;2024-01-30T12:55:52;100999.19;;;9.48;93.79
25584;BME280;13463;51.526;9.928;2024-01-30T12:58:20;101004.94;;;9.61;93.87
25584;BME280;13463;51.526;9.928;2024-01-30T13:00:47;101002.22;;;9.62;93.24